createdAt,value
2022-10-26T00:05:20.333Z,4.40
2022-10-26T00:11:23.672Z,4.63
2022-10-26T00:17:28.502Z,4.90
2022-10-26T00:23:32.079Z,4.68
2022-10-26T00:29:35.522Z,3.70
2022-10-26T00:35:46.039Z,3.70
2022-10-26T00:41:49.806Z,3.65
2022-10-26T00:47:55.030Z,2.72
2022-10-26T00:54:00.642Z,3.10
2022-10-26T01:00:04.087Z,2.50
2022-10-26T01:06:08.002Z,2.55
2022-10-26T01:12:12.891Z,2.30
2022-10-26T01:18:21.223Z,1.80
2022-10-26T01:24:32.293Z,2.22
2022-10-26T01:30:38.634Z,2.13
2022-10-26T01:36:44.537Z,1.83
2022-10-26T01:42:50.608Z,1.92
2022-10-26T01:48:57.320Z,1.50
2022-10-26T01:55:03.956Z,1.95
2022-10-26T02:01:13.078Z,1.70
2022-10-26T02:07:20.804Z,1.80
2022-10-26T02:13:31.445Z,2.10
2022-10-26T02:19:38.087Z,1.77
2022-10-26T02:25:46.115Z,2.65
2022-10-26T02:31:50.654Z,2.00
2022-10-26T02:37:54.886Z,1.83
2022-10-26T02:44:03.946Z,1.70
2022-10-26T02:50:07.719Z,1.98
2022-10-26T02:56:16.569Z,2.05
2022-10-26T03:02:25.622Z,1.92
2022-10-26T03:14:37.409Z,1.67
2022-10-26T03:20:42.162Z,2.08
2022-10-26T03:26:47.576Z,1.65
2022-10-26T03:32:50.938Z,1.65
2022-10-26T03:38:55.745Z,1.60
2022-10-26T03:44:59.115Z,1.85
2022-10-26T03:51:02.617Z,1.80
2022-10-26T03:57:07.411Z,1.52
2022-10-26T04:03:11.015Z,1.50
2022-10-26T04:09:14.410Z,1.42
2022-10-26T04:15:19.868Z,1.50
2022-10-26T04:21:23.299Z,1.77
2022-10-26T04:27:26.871Z,1.50
2022-10-26T04:33:31.998Z,1.55
2022-10-26T04:39:35.376Z,1.73
2022-10-26T04:45:38.901Z,1.50
2022-10-26T04:51:43.677Z,1.60
2022-10-26T04:57:47.594Z,1.60
2022-10-26T05:03:52.056Z,1.58
2022-10-26T05:09:56.879Z,1.85
2022-10-26T05:16:00.342Z,2.15
2022-10-26T05:22:03.777Z,2.00
2022-10-26T05:28:09.676Z,1.70
2022-10-26T05:34:13.918Z,1.90
2022-10-26T05:40:17.865Z,2.50
2022-10-26T05:46:22.590Z,2.35
2022-10-26T05:52:26.142Z,2.30
2022-10-26T05:58:29.685Z,2.15
2022-10-26T06:04:38.867Z,2.80
2022-10-26T06:10:42.992Z,2.97
2022-10-26T06:17:03.464Z,3.17
2022-10-26T06:23:16.196Z,3.88
2022-10-26T06:29:24.425Z,2.95
2022-10-26T06:35:33.388Z,2.70
2022-10-26T06:41:38.854Z,3.70
2022-10-26T06:47:45.084Z,2.88
2022-10-26T06:53:52.198Z,2.40
2022-10-26T06:59:59.999Z,2.15
2022-10-26T07:06:03.361Z,2.50
2022-10-26T07:12:06.968Z,2.45
2022-10-26T07:18:12.142Z,1.92
2022-10-26T07:24:15.662Z,2.30
2022-10-26T07:30:19.460Z,2.17
2022-10-26T07:36:24.615Z,1.83
2022-10-26T07:42:28.105Z,2.65
2022-10-26T07:48:31.518Z,1.80
2022-10-26T07:54:36.457Z,2.10
2022-10-26T08:00:39.821Z,1.90
2022-10-26T08:06:43.600Z,2.22
2022-10-26T08:12:48.456Z,1.95
2022-10-26T08:18:52.031Z,1.70
2022-10-26T08:24:55.454Z,1.95
2022-10-26T08:31:00.255Z,1.90
2022-10-26T08:37:03.720Z,1.85
2022-10-26T08:43:12.297Z,1.70
2022-10-26T08:49:20.598Z,1.70
2022-10-26T08:55:27.406Z,1.80
2022-10-26T09:01:32.755Z,1.88
2022-10-26T09:07:48.307Z,1.60
2022-10-26T09:13:59.017Z,1.52
2022-10-26T09:20:15.587Z,1.80
2022-10-26T09:26:26.966Z,1.58
2022-10-26T09:32:33.271Z,2.07
2022-10-26T09:38:38.813Z,2.15
2022-10-26T09:44:45.542Z,2.20
2022-10-26T09:50:50.321Z,2.08
2022-10-26T09:56:54.640Z,2.20
2022-10-26T10:03:00.244Z,2.28
2022-10-26T10:09:10.484Z,2.25
2022-10-26T10:15:19.850Z,2.10
2022-10-26T10:21:35.120Z,1.50
2022-10-26T10:27:38.501Z,1.58
2022-10-26T10:33:45.460Z,1.30
2022-10-26T10:39:51.451Z,0.95
2022-10-26T10:45:59.469Z,1.42
2022-10-26T10:52:03.294Z,1.30
2022-10-26T10:58:13.810Z,1.10
2022-10-26T11:04:25.516Z,1.23
2022-10-26T11:10:31.427Z,1.30
2022-10-26T11:16:38.061Z,1.00
2022-10-26T11:22:44.208Z,1.70
2022-10-26T11:28:50.970Z,1.65
2022-10-26T11:34:58.841Z,1.27
2022-10-26T11:41:04.953Z,0.85
2022-10-26T11:47:12.855Z,1.35
2022-10-26T11:53:18.891Z,0.90
2022-10-26T11:59:23.303Z,1.10
2022-10-26T12:05:35.265Z,1.15
2022-10-26T12:11:43.849Z,1.02
2022-10-26T12:17:52.320Z,1.10
2022-10-26T12:23:56.597Z,0.95
2022-10-26T12:30:28.016Z,1.33
2022-10-26T12:36:50.707Z,1.40
2022-10-26T12:42:54.270Z,1.38
2022-10-26T12:49:00.222Z,0.90
2022-10-26T12:55:18.733Z,1.00
2022-10-26T13:01:42.818Z,0.73
2022-10-26T13:07:47.934Z,1.00
2022-10-26T13:13:54.814Z,1.17
2022-10-26T13:19:59.427Z,1.10
2022-10-26T13:26:09.618Z,0.88
2022-10-26T13:32:15.811Z,0.77
2022-10-26T13:38:22.019Z,0.80
2022-10-26T13:44:31.446Z,1.00
2022-10-26T13:50:36.044Z,1.05
2022-10-26T13:56:42.033Z,1.10
2022-10-26T14:02:47.757Z,1.00
2022-10-26T14:08:52.481Z,0.60
2022-10-26T14:14:56.273Z,1.00
2022-10-26T14:21:02.530Z,1.35
2022-10-26T14:27:05.984Z,1.00
2022-10-26T14:33:19.681Z,1.00
2022-10-26T14:39:29.421Z,0.82
2022-10-26T14:45:47.963Z,0.77
2022-10-26T14:51:57.566Z,1.33
2022-10-26T14:58:10.554Z,0.90
2022-10-26T15:04:28.437Z,1.10
2022-10-26T15:10:48.285Z,1.30
2022-10-26T15:16:54.827Z,0.80
2022-10-26T15:22:59.463Z,1.20
2022-10-26T15:29:02.897Z,1.00
2022-10-26T15:35:24.352Z,0.90
2022-10-26T15:41:29.311Z,1.20
2022-10-26T15:47:34.947Z,1.15
2022-10-26T15:53:39.753Z,0.77
2022-10-26T15:59:43.150Z,0.80
2022-10-26T16:05:46.878Z,0.93
2022-10-26T16:11:51.748Z,0.70
2022-10-26T16:17:55.436Z,0.90
2022-10-26T16:23:58.857Z,0.80
2022-10-26T16:30:03.927Z,1.08
2022-10-26T16:36:07.771Z,6.80
2022-10-26T16:42:11.204Z,2.30
2022-10-26T16:48:16.237Z,2.00
2022-10-26T16:54:20.025Z,1.40
2022-10-26T17:00:23.426Z,5.90
2022-10-26T17:06:28.561Z,2.60
2022-10-26T17:12:32.108Z,4.88
2022-10-26T17:18:35.557Z,1.83
2022-10-26T17:24:40.319Z,2.28
2022-10-26T17:30:44.701Z,3.13
2022-10-26T17:36:48.351Z,2.17
2022-10-26T17:42:53.260Z,2.10
2022-10-26T17:49:26.907Z,1.98
2022-10-26T17:55:32.813Z,2.78
2022-10-26T18:01:37.655Z,2.35
2022-10-26T18:07:41.259Z,1.83
2022-10-26T18:13:44.776Z,2.70
2022-10-26T18:19:50.142Z,1.70
2022-10-26T18:26:01.157Z,1.90
2022-10-26T18:32:04.848Z,2.35
2022-10-26T18:38:09.668Z,3.90
2022-10-26T18:44:13.074Z,5.40
2022-10-26T18:50:16.557Z,3.40
2022-10-26T18:56:23.170Z,4.35
2022-10-26T19:02:26.630Z,4.00
2022-10-26T19:08:29.974Z,3.03
2022-10-26T19:14:34.921Z,2.67
2022-10-26T19:20:38.690Z,2.53
2022-10-26T19:26:44.016Z,2.92
2022-10-26T19:32:49.684Z,2.60
2022-10-26T19:38:53.216Z,2.97
2022-10-26T19:44:56.992Z,2.75
2022-10-26T19:51:02.038Z,2.72
2022-10-26T19:57:05.847Z,2.83
2022-10-26T20:03:09.553Z,2.78
2022-10-26T20:09:14.481Z,2.28
2022-10-26T20:15:18.059Z,2.33
2022-10-26T20:21:21.480Z,2.80
2022-10-26T20:27:26.350Z,1.85
2022-10-26T20:33:29.914Z,2.03
2022-10-26T20:39:34.181Z,2.08
2022-10-26T20:45:39.477Z,2.17
2022-10-26T20:52:02.740Z,2.47
2022-10-26T20:58:11.987Z,2.30
2022-10-26T21:04:16.776Z,2.00
2022-10-26T21:10:20.154Z,1.98
2022-10-26T21:16:24.059Z,2.30
2022-10-26T21:22:28.874Z,2.40
2022-10-26T21:28:35.239Z,2.20
2022-10-26T21:34:38.877Z,2.47
2022-10-26T21:40:44.051Z,2.42
2022-10-26T21:46:47.475Z,2.70
2022-10-26T21:52:54.039Z,2.70
2022-10-26T21:59:01.254Z,2.70
2022-10-26T22:05:04.831Z,2.67
2022-10-26T22:11:10.551Z,2.80
2022-10-26T22:17:17.961Z,2.90
2022-10-26T22:23:21.472Z,2.72
2022-10-26T22:29:25.032Z,2.70
2022-10-26T22:35:30.191Z,2.92
2022-10-26T22:41:33.869Z,2.80
2022-10-26T22:47:37.237Z,2.40
2022-10-26T22:53:42.354Z,2.50
2022-10-26T22:59:45.712Z,2.72
2022-10-26T23:05:49.388Z,2.90
2022-10-26T23:11:54.141Z,2.80
2022-10-26T23:17:57.606Z,2.17
2022-10-26T23:24:01.040Z,2.40
2022-10-26T23:30:06.061Z,2.20
2022-10-26T23:36:09.943Z,2.50
2022-10-26T23:42:13.345Z,2.25
2022-10-26T23:48:19.409Z,2.42
2022-10-26T23:54:22.842Z,2.58
